createdAt,value
2023-04-02T00:00:21.380Z,93.21
2023-04-02T00:03:01.417Z,93.27
2023-04-02T00:05:53.685Z,92.51
2023-04-02T00:08:27.401Z,93.05
2023-04-02T00:10:58.739Z,92.56
2023-04-02T00:13:34.771Z,91.66
2023-04-02T00:16:05.709Z,92.16
2023-04-02T00:18:35.678Z,92.57
2023-04-02T00:21:12.808Z,92.07
2023-04-02T00:23:43.875Z,91.59
2023-04-02T00:26:31.688Z,90.85
2023-04-02T00:29:03.434Z,90.74
2023-04-02T00:31:34.423Z,90.36
2023-04-02T00:34:05.522Z,90.03
2023-04-02T00:36:35.928Z,90.74
2023-04-02T00:39:12.356Z,91.35
2023-04-02T00:41:47.210Z,90.61
2023-04-02T00:44:22.141Z,90.00
2023-04-02T00:46:51.771Z,89.92
2023-04-02T00:49:27.625Z,90.49
2023-04-02T00:52:01.452Z,89.90
2023-04-02T00:54:33.969Z,89.66
2023-04-02T00:57:03.820Z,90.18
2023-04-02T00:59:36.894Z,91.10
2023-04-02T01:02:28.096Z,92.06
2023-04-02T01:05:00.499Z,91.07
2023-04-02T01:08:02.138Z,90.80
2023-04-02T01:10:56.790Z,90.73
2023-04-02T01:13:32.668Z,89.58
2023-04-02T01:16:11.984Z,88.62
2023-04-02T01:18:53.557Z,89.50
2023-04-02T01:21:42.599Z,89.35
2023-04-02T01:24:13.714Z,91.97
2023-04-02T01:26:58.887Z,90.50
2023-04-02T01:29:32.462Z,91.13
2023-04-02T01:32:05.883Z,90.17
2023-04-02T01:34:36.406Z,89.53
2023-04-02T01:37:23.291Z,91.60
2023-04-02T01:40:14.594Z,91.44
2023-04-02T01:42:52.834Z,92.98
2023-04-02T01:45:24.706Z,92.55
2023-04-02T01:47:53.901Z,91.61
2023-04-02T01:50:31.973Z,90.82
2023-04-02T01:53:05.093Z,90.21
2023-04-02T01:55:41.966Z,90.85
2023-04-02T01:58:12.540Z,91.26
2023-04-02T02:00:51.882Z,91.03
2023-04-02T02:03:21.791Z,91.17
2023-04-02T02:05:50.642Z,90.66
2023-04-02T02:08:35.468Z,90.06
2023-04-02T02:11:05.055Z,91.49
2023-04-02T02:13:33.704Z,90.71
2023-04-02T02:16:05.777Z,91.36
2023-04-02T02:18:34.625Z,91.70
2023-04-02T02:21:09.243Z,89.87
2023-04-02T02:23:38.480Z,91.31
2023-04-02T02:26:08.211Z,91.39
2023-04-02T02:28:43.752Z,91.47
2023-04-02T02:31:19.772Z,90.00
2023-04-02T02:33:52.639Z,89.52
2023-04-02T02:36:26.156Z,89.15
2023-04-02T02:38:58.424Z,89.03
2023-04-02T02:41:34.693Z,89.73
2023-04-02T02:44:12.765Z,90.11
2023-04-02T02:46:47.847Z,90.22
2023-04-02T02:49:19.998Z,90.17
2023-04-02T02:51:54.122Z,91.57
2023-04-02T02:54:23.347Z,90.97
2023-04-02T02:56:57.978Z,91.51
2023-04-02T02:59:27.138Z,91.16
2023-04-02T03:01:57.047Z,90.53
2023-04-02T03:04:26.619Z,91.08
2023-04-02T03:06:57.478Z,90.38
2023-04-02T03:09:38.349Z,91.71
2023-04-02T03:12:28.538Z,90.57
2023-04-02T03:15:04.632Z,90.44
2023-04-02T03:17:40.331Z,90.68
2023-04-02T03:20:18.564Z,90.65
2023-04-02T03:22:54.921Z,91.32
2023-04-02T03:25:35.102Z,91.40
2023-04-02T03:28:09.401Z,90.41
2023-04-02T03:30:45.378Z,90.33
2023-04-02T03:33:23.011Z,91.20
2023-04-02T03:35:59.688Z,90.36
2023-04-02T03:38:32.457Z,90.59
2023-04-02T03:41:06.434Z,90.42
2023-04-02T03:43:41.225Z,91.96
2023-04-02T03:46:25.366Z,92.45
2023-04-02T03:49:00.307Z,91.21
2023-04-02T03:51:34.450Z,91.62
2023-04-02T03:54:03.479Z,91.69
2023-04-02T03:56:40.186Z,90.53
2023-04-02T03:59:19.773Z,91.99
2023-04-02T04:01:55.947Z,92.12
2023-04-02T04:04:30.109Z,91.91
2023-04-02T04:07:00.086Z,91.35
2023-04-02T04:09:33.355Z,92.64
2023-04-02T04:12:16.789Z,92.95
2023-04-02T04:14:51.126Z,92.06
2023-04-02T04:17:30.268Z,91.00
2023-04-02T04:20:09.029Z,90.54
2023-04-02T04:22:38.139Z,91.94
2023-04-02T04:25:19.073Z,90.77
2023-04-02T04:28:05.812Z,90.04
2023-04-02T04:30:45.274Z,90.93
2023-04-02T04:33:22.494Z,90.61
2023-04-02T04:35:57.005Z,91.71
2023-04-02T04:38:33.130Z,90.85
2023-04-02T04:41:07.236Z,91.14
2023-04-02T04:43:47.268Z,90.53
2023-04-02T04:46:21.017Z,90.28
2023-04-02T04:48:56.992Z,90.34
2023-04-02T04:51:33.729Z,90.60
2023-04-02T04:54:02.745Z,91.76
2023-04-02T04:56:33.634Z,91.05
2023-04-02T04:59:07.350Z,90.74
2023-04-02T05:01:42.607Z,91.04
2023-04-02T05:04:17.959Z,90.96
2023-04-02T05:06:56.588Z,90.62
2023-04-02T05:09:34.301Z,91.61
2023-04-02T05:12:12.167Z,92.25
2023-04-02T05:14:46.021Z,91.50
2023-04-02T05:17:22.084Z,91.58
2023-04-02T05:19:57.845Z,90.23
2023-04-02T05:22:36.273Z,90.29
2023-04-02T05:25:18.396Z,91.93
2023-04-02T05:27:53.646Z,92.14
2023-04-02T05:30:49.590Z,89.96
2023-04-02T05:33:29.723Z,90.37
2023-04-02T05:36:02.760Z,89.66
2023-04-02T05:38:36.445Z,91.52
2023-04-02T05:41:08.943Z,90.98
2023-04-02T05:43:40.862Z,91.82
2023-04-02T05:46:18.748Z,91.65
2023-04-02T05:48:52.563Z,91.58
2023-04-02T05:51:25.835Z,92.91
2023-04-02T05:53:58.576Z,92.01
2023-04-02T05:56:31.507Z,91.21
2023-04-02T05:59:07.707Z,90.58
2023-04-02T06:01:43.255Z,90.59
2023-04-02T06:04:22.362Z,91.38
2023-04-02T06:07:00.980Z,91.80
2023-04-02T06:09:40.987Z,90.97
2023-04-02T06:12:27.945Z,90.14
2023-04-02T06:14:56.705Z,89.95
2023-04-02T06:17:25.634Z,91.20
2023-04-02T06:19:57.716Z,91.93
2023-04-02T06:22:34.399Z,90.63
2023-04-02T06:25:10.950Z,89.01
2023-04-02T06:27:41.672Z,90.62
2023-04-02T06:30:19.886Z,90.32
2023-04-02T06:32:48.351Z,89.88
2023-04-02T06:35:17.431Z,90.06
2023-04-02T06:37:49.695Z,89.39
2023-04-02T06:40:39.623Z,89.83
2023-04-02T06:43:15.927Z,90.80
2023-04-02T06:45:47.852Z,90.07
2023-04-02T06:48:19.634Z,88.01
2023-04-02T06:50:51.377Z,88.06
2023-04-02T06:53:25.923Z,88.46
2023-04-02T06:56:04.533Z,88.47
2023-04-02T06:58:32.976Z,88.81
2023-04-02T07:01:01.483Z,88.28
2023-04-02T07:03:32.508Z,88.72
2023-04-02T07:06:03.592Z,87.37
2023-04-02T07:08:32.249Z,87.61
2023-04-02T07:11:02.105Z,86.80
2023-04-02T07:13:30.767Z,87.26
2023-04-02T07:15:59.262Z,87.11
2023-04-02T07:18:30.610Z,88.31
2023-04-02T07:20:59.411Z,86.76
2023-04-02T07:23:28.375Z,87.14
2023-04-02T07:25:58.740Z,85.67
2023-04-02T07:28:28.590Z,86.02
2023-04-02T07:30:57.897Z,85.88
2023-04-02T07:33:29.519Z,85.94
2023-04-02T07:35:59.579Z,86.38
2023-04-02T07:38:28.230Z,86.41
2023-04-02T07:40:56.669Z,86.63
2023-04-02T07:43:25.303Z,84.24
2023-04-02T07:45:55.120Z,86.61
2023-04-02T07:48:23.622Z,83.92
2023-04-02T07:50:52.034Z,84.94
2023-04-02T07:53:30.915Z,86.80
2023-04-02T07:56:01.161Z,84.54
2023-04-02T07:58:30.270Z,85.43
2023-04-02T08:01:01.629Z,85.42
2023-04-02T08:03:30.433Z,85.99
2023-04-02T08:06:00.473Z,83.75
2023-04-02T08:08:28.991Z,83.53
2023-04-02T08:10:57.644Z,85.00
2023-04-02T08:13:26.301Z,83.75
2023-04-02T08:15:54.733Z,83.91
2023-04-02T08:18:25.164Z,84.66
2023-04-02T08:20:53.822Z,83.94
2023-04-02T08:23:22.394Z,84.40
2023-04-02T08:25:51.934Z,84.96
2023-04-02T08:28:21.428Z,84.89
2023-04-02T08:30:50.407Z,82.70
2023-04-02T08:33:19.937Z,83.64
2023-04-02T08:35:51.711Z,84.12
2023-04-02T08:38:23.032Z,83.64
2023-04-02T08:40:53.470Z,84.96
2023-04-02T08:44:03.403Z,84.31
2023-04-02T08:46:38.476Z,84.39
2023-04-02T08:49:15.939Z,85.94
2023-04-02T08:51:47.417Z,85.09
2023-04-02T08:54:22.569Z,84.87
2023-04-02T08:56:57.101Z,84.57
2023-04-02T08:59:34.383Z,83.65
2023-04-02T09:02:25.555Z,82.82
2023-04-02T09:04:54.330Z,81.84
2023-04-02T09:07:24.364Z,84.08
2023-04-02T09:09:52.938Z,83.77
2023-04-02T09:12:25.675Z,80.90
2023-04-02T09:15:08.065Z,81.61
2023-04-02T09:17:50.687Z,82.72
2023-04-02T09:20:26.310Z,82.07
2023-04-02T09:22:58.921Z,79.67
2023-04-02T09:25:31.451Z,81.96
2023-04-02T09:28:05.422Z,81.17
2023-04-02T09:30:55.572Z,82.61
2023-04-02T09:33:44.071Z,82.97
2023-04-02T09:36:27.721Z,81.13
2023-04-02T09:39:06.881Z,81.87
2023-04-02T09:41:37.464Z,82.37
2023-04-02T09:44:24.951Z,81.39
2023-04-02T09:46:59.593Z,82.93
2023-04-02T09:49:31.391Z,82.10
2023-04-02T09:52:28.257Z,80.18
2023-04-02T09:55:31.097Z,81.52
2023-04-02T09:58:14.757Z,80.29
2023-04-02T10:00:52.493Z,82.49
2023-04-02T10:03:26.974Z,82.08
2023-04-02T10:06:14.040Z,82.03
2023-04-02T10:08:44.693Z,82.17
2023-04-02T10:11:18.591Z,81.96
2023-04-02T10:13:54.185Z,80.68
2023-04-02T10:16:33.334Z,81.20
2023-04-02T10:19:08.566Z,81.69
2023-04-02T10:21:39.651Z,82.37
2023-04-02T10:24:13.912Z,81.05
2023-04-02T10:27:02.856Z,82.57
2023-04-02T10:29:56.383Z,83.67
2023-04-02T10:32:32.170Z,81.14
2023-04-02T10:35:04.534Z,81.97
2023-04-02T10:38:17.154Z,80.20
2023-04-02T10:40:50.469Z,80.95
2023-04-02T10:44:19.376Z,79.23
2023-04-02T10:47:01.114Z,82.29
2023-04-02T10:49:39.595Z,83.00
2023-04-02T10:52:13.634Z,79.99
2023-04-02T10:54:48.060Z,78.43
2023-04-02T10:57:30.377Z,79.66
2023-04-02T11:00:17.155Z,80.77
2023-04-02T11:02:52.366Z,81.83
2023-04-02T11:05:29.680Z,79.37
2023-04-02T11:08:04.268Z,80.78
2023-04-02T11:10:38.765Z,78.20
2023-04-02T11:13:16.909Z,77.70
2023-04-02T11:15:47.047Z,80.16
2023-04-02T11:18:28.930Z,81.13
2023-04-02T11:21:04.581Z,78.41
2023-04-02T11:23:58.757Z,79.00
2023-04-02T11:26:41.310Z,76.01
2023-04-02T11:29:27.632Z,77.12
2023-04-02T11:32:36.033Z,76.17
2023-04-02T11:35:38.542Z,73.04
2023-04-02T11:38:52.330Z,74.52
2023-04-02T11:42:03.882Z,75.76
2023-04-02T11:44:32.383Z,74.48
2023-04-02T11:47:19.405Z,78.09
2023-04-02T11:50:31.362Z,78.35
2023-04-02T11:53:03.876Z,78.43
2023-04-02T11:58:53.089Z,78.56
2023-04-02T12:01:51.773Z,80.34
2023-04-02T12:05:09.350Z,81.23
2023-04-02T12:08:07.739Z,81.25
2023-04-02T12:10:57.857Z,83.25
2023-04-02T12:13:50.990Z,83.92
2023-04-02T12:16:20.732Z,85.71
2023-04-02T12:18:54.394Z,85.16
2023-04-02T12:21:26.082Z,87.71
2023-04-02T12:23:58.774Z,88.50
2023-04-02T12:26:37.596Z,90.17
2023-04-02T12:29:26.239Z,90.31
2023-04-02T12:31:56.778Z,91.45
2023-04-02T12:34:28.550Z,91.67
2023-04-02T12:37:02.859Z,91.34
2023-04-02T12:39:34.859Z,90.95
2023-04-02T12:42:03.466Z,92.04
2023-04-02T12:44:32.844Z,90.95
2023-04-02T12:47:01.520Z,92.16
2023-04-02T12:49:38.130Z,92.67
2023-04-02T12:52:09.307Z,93.00
2023-04-02T12:54:46.583Z,92.65
2023-04-02T12:57:40.251Z,92.76
2023-04-02T13:00:33.088Z,93.23
2023-04-02T13:03:18.144Z,93.07
2023-04-02T13:05:52.701Z,92.89
2023-04-02T13:08:25.172Z,92.92
2023-04-02T13:11:00.585Z,92.76
2023-04-02T13:13:34.161Z,92.30
2023-04-02T13:16:23.702Z,92.65
2023-04-02T13:18:52.615Z,92.65
2023-04-02T13:21:28.848Z,93.21
2023-04-02T13:23:57.475Z,92.76
2023-04-02T13:26:28.969Z,93.17
2023-04-02T13:29:02.350Z,92.77
2023-04-02T13:31:32.370Z,92.92
2023-04-02T13:34:01.274Z,93.27
2023-04-02T13:36:29.878Z,93.34
2023-04-02T13:38:58.525Z,93.01
2023-04-02T13:41:31.370Z,93.62
2023-04-02T13:44:02.900Z,93.53
2023-04-02T13:46:33.922Z,93.11
2023-04-02T13:49:02.995Z,90.38
2023-04-02T13:51:38.251Z,91.21
2023-04-02T13:54:13.988Z,89.81
2023-04-02T13:56:44.036Z,88.87
2023-04-02T13:59:12.642Z,88.72
2023-04-02T14:01:42.081Z,88.42
2023-04-02T14:04:12.443Z,86.95
2023-04-02T14:07:31.346Z,86.63
2023-04-02T14:10:08.627Z,86.13
2023-04-02T14:12:53.485Z,87.51
2023-04-02T14:15:34.802Z,87.19
2023-04-02T14:18:36.832Z,86.13
2023-04-02T14:21:16.344Z,83.90
2023-04-02T14:24:05.956Z,83.65
2023-04-02T14:26:44.236Z,86.35
2023-04-02T14:29:21.041Z,87.55
2023-04-02T14:31:57.096Z,85.86
2023-04-02T14:34:33.949Z,86.69
2023-04-02T14:37:14.353Z,84.71
2023-04-02T14:39:53.429Z,83.48
2023-04-02T14:42:29.197Z,87.35
2023-04-02T14:45:05.778Z,83.23
2023-04-02T14:47:40.259Z,85.40
2023-04-02T14:50:16.384Z,79.92
2023-04-02T14:52:49.056Z,83.68
2023-04-02T14:55:28.079Z,84.33
2023-04-02T14:57:57.478Z,81.34
2023-04-02T15:00:40.472Z,84.93
2023-04-02T15:03:14.551Z,84.81
2023-04-02T15:05:46.652Z,85.68
2023-04-02T15:08:21.710Z,85.33
2023-04-02T15:11:04.997Z,86.16
2023-04-02T15:13:39.969Z,85.59
2023-04-02T15:16:19.528Z,84.62
2023-04-02T15:18:51.864Z,85.45
2023-04-02T15:21:49.721Z,85.72
2023-04-02T15:24:34.522Z,85.05
2023-04-02T15:27:25.143Z,85.66
2023-04-02T15:30:04.300Z,86.43
2023-04-02T15:32:40.793Z,85.89
2023-04-02T15:35:22.476Z,86.45
2023-04-02T15:38:01.454Z,85.22
2023-04-02T15:40:56.245Z,84.88
2023-04-02T15:43:30.834Z,86.47
2023-04-02T15:46:13.907Z,86.31
2023-04-02T15:49:21.177Z,85.60
2023-04-02T15:52:06.991Z,85.66
2023-04-02T15:54:56.403Z,84.63
2023-04-02T15:57:47.230Z,87.07
2023-04-02T16:00:30.770Z,85.11
2023-04-02T16:03:40.140Z,84.06
2023-04-02T16:06:26.119Z,84.62
2023-04-02T16:09:09.218Z,84.26
2023-04-02T16:11:37.750Z,87.96
2023-04-02T16:14:22.846Z,85.99
2023-04-02T16:16:53.882Z,87.24
2023-04-02T16:19:30.602Z,87.70
2023-04-02T16:22:10.088Z,88.60
2023-04-02T16:24:38.632Z,88.67
2023-04-02T16:27:22.884Z,86.63
2023-04-02T16:30:07.369Z,85.02
2023-04-02T16:32:59.582Z,84.33
2023-04-02T16:35:43.053Z,83.82
2023-04-02T16:38:31.835Z,81.80
2023-04-02T16:41:10.630Z,84.65
2023-04-02T16:43:50.781Z,84.19
2023-04-02T16:46:39.083Z,85.59
2023-04-02T16:49:22.191Z,83.90
2023-04-02T16:52:01.835Z,82.98
2023-04-02T16:54:41.686Z,86.12
2023-04-02T17:00:30.756Z,89.67
2023-04-02T17:03:20.698Z,86.60
2023-04-02T17:05:57.654Z,84.92
2023-04-02T17:08:28.414Z,83.94
2023-04-02T17:11:02.853Z,85.30
2023-04-02T17:13:41.171Z,85.18
2023-04-02T17:16:20.171Z,88.98
2023-04-02T17:18:52.358Z,89.41
2023-04-02T17:21:26.521Z,91.36
2023-04-02T17:23:59.362Z,89.81
2023-04-02T17:26:32.525Z,90.35
2023-04-02T17:29:07.350Z,91.14
2023-04-02T17:31:37.333Z,91.03
2023-04-02T17:34:15.441Z,91.20
2023-04-02T17:36:54.886Z,90.64
2023-04-02T17:39:32.580Z,91.16
2023-04-02T17:42:15.647Z,92.14
2023-04-02T17:45:06.110Z,92.67
2023-04-02T17:47:45.779Z,92.64
2023-04-02T17:50:40.408Z,92.85
2023-04-02T17:53:20.642Z,90.75
2023-04-02T17:56:03.731Z,92.62
2023-04-02T17:59:03.296Z,91.86
2023-04-02T18:01:35.905Z,91.65
2023-04-02T18:04:19.702Z,90.50
2023-04-02T18:07:05.142Z,91.51
2023-04-02T18:09:45.003Z,90.61
2023-04-02T18:12:32.760Z,89.84
2023-04-02T18:15:26.000Z,91.71
2023-04-02T18:18:00.240Z,91.31
2023-04-02T18:20:36.748Z,91.08
2023-04-02T18:23:15.350Z,91.34
2023-04-02T18:25:55.347Z,91.18
2023-04-02T18:28:42.360Z,91.21
2023-04-02T18:31:23.251Z,92.25
2023-04-02T18:34:33.499Z,91.96
2023-04-02T18:37:16.486Z,89.07
2023-04-02T18:40:18.317Z,90.08
2023-04-02T18:42:59.755Z,91.59
2023-04-02T18:45:40.871Z,92.32
2023-04-02T18:48:23.454Z,92.77
2023-04-02T18:50:52.023Z,92.24
2023-04-02T18:53:25.489Z,92.46
2023-04-02T18:55:58.446Z,92.85
2023-04-02T18:58:32.940Z,92.96
2023-04-02T19:01:02.532Z,92.95
2023-04-02T19:03:39.798Z,92.66
2023-04-02T19:06:13.828Z,92.83
2023-04-02T19:08:49.758Z,92.55
2023-04-02T19:11:28.545Z,92.29
2023-04-02T19:14:00.273Z,92.06
2023-04-02T19:17:05.277Z,91.90
2023-04-02T19:19:42.451Z,90.69
2023-04-02T19:22:31.557Z,91.41
2023-04-02T19:25:18.306Z,92.39
2023-04-02T19:28:02.000Z,91.67
2023-04-02T19:30:44.325Z,92.15
2023-04-02T19:33:26.095Z,91.50
2023-04-02T19:36:00.909Z,92.53
2023-04-02T19:38:55.396Z,91.73
2023-04-02T19:41:31.250Z,91.99
2023-04-02T19:44:00.371Z,92.00
2023-04-02T19:46:29.377Z,93.50
2023-04-02T19:49:05.936Z,92.45
2023-04-02T19:51:35.748Z,92.37
2023-04-02T19:54:04.964Z,91.88
2023-04-02T19:56:33.479Z,92.67
2023-04-02T19:59:07.772Z,93.24
2023-04-02T20:01:45.349Z,92.89
2023-04-02T20:04:14.007Z,91.91
2023-04-02T20:06:44.805Z,93.96
2023-04-02T20:12:02.466Z,93.44
2023-04-02T20:14:31.012Z,94.29
2023-04-02T20:16:59.499Z,94.25
2023-04-02T20:19:28.032Z,93.86
2023-04-02T20:21:57.848Z,93.99
2023-04-02T20:24:26.285Z,94.51
2023-04-02T20:26:54.841Z,94.28
2023-04-02T20:29:27.859Z,93.81
2023-04-02T20:31:56.468Z,93.91
2023-04-02T20:34:25.564Z,93.56
2023-04-02T20:36:54.198Z,93.57
2023-04-02T20:39:24.217Z,92.13
2023-04-02T20:41:52.652Z,92.92
2023-04-02T20:44:21.533Z,93.63
2023-04-02T20:46:49.965Z,93.58
2023-04-02T20:49:18.618Z,93.87
2023-04-02T20:51:47.922Z,93.96
2023-04-02T20:54:17.022Z,93.56
2023-04-02T20:56:47.617Z,94.41
2023-04-02T20:59:16.031Z,93.30
2023-04-02T21:01:44.510Z,93.72
2023-04-02T21:04:14.242Z,94.71
2023-04-02T21:06:44.407Z,93.72
2023-04-02T21:09:17.968Z,94.17
2023-04-02T21:11:47.994Z,94.01
2023-04-02T21:14:16.571Z,93.68
2023-04-02T21:16:45.096Z,94.13
2023-04-02T21:19:13.509Z,94.24
2023-04-02T21:21:44.217Z,93.85
2023-04-02T21:24:13.422Z,94.44
2023-04-02T21:26:44.414Z,93.57
2023-04-02T21:29:14.661Z,94.11
2023-04-02T21:31:43.776Z,94.01
2023-04-02T21:34:16.534Z,93.65
2023-04-02T21:36:47.269Z,92.92
2023-04-02T21:39:21.353Z,94.11
2023-04-02T21:41:51.978Z,94.26
2023-04-02T21:44:24.442Z,92.65
2023-04-02T21:46:54.224Z,93.06
2023-04-02T21:49:25.737Z,93.59
2023-04-02T21:51:54.314Z,92.78
2023-04-02T21:54:23.713Z,93.72
2023-04-02T21:56:52.687Z,93.60
2023-04-02T21:59:22.622Z,92.64
2023-04-02T22:01:53.117Z,93.53
2023-04-02T22:04:24.403Z,94.31
2023-04-02T22:06:54.585Z,93.44
2023-04-02T22:09:26.242Z,94.04
2023-04-02T22:11:59.417Z,93.75
2023-04-02T22:14:30.276Z,94.00
2023-04-02T22:16:59.365Z,93.73
2023-04-02T22:19:29.133Z,94.12
2023-04-02T22:21:57.697Z,94.48
2023-04-02T22:24:26.270Z,93.98
2023-04-02T22:26:54.997Z,93.09
2023-04-02T22:29:23.833Z,93.18
2023-04-02T22:31:53.686Z,93.66
2023-04-02T22:34:22.463Z,93.43
2023-04-02T22:36:50.905Z,92.83
2023-04-02T22:39:20.395Z,92.54
2023-04-02T22:41:48.799Z,93.16
2023-04-02T22:44:17.724Z,93.59
2023-04-02T22:46:46.134Z,93.96
2023-04-02T22:49:19.616Z,94.28
2023-04-02T22:51:48.298Z,94.19
2023-04-02T22:54:17.260Z,92.83
2023-04-02T22:56:45.748Z,93.26
2023-04-02T22:59:14.948Z,92.66
2023-04-02T23:01:44.571Z,93.21
2023-04-02T23:04:13.038Z,93.50
2023-04-02T23:06:42.883Z,93.22
2023-04-02T23:09:11.806Z,93.90
2023-04-02T23:11:40.794Z,93.31
2023-04-02T23:14:09.247Z,93.40
2023-04-02T23:16:37.987Z,93.05
2023-04-02T23:19:06.493Z,93.95
2023-04-02T23:21:34.960Z,92.76
2023-04-02T23:24:05.107Z,93.70
2023-04-02T23:26:34.092Z,94.21
2023-04-02T23:29:02.814Z,94.00
2023-04-02T23:31:31.679Z,93.62
2023-04-02T23:34:00.209Z,94.00
2023-04-02T23:36:31.665Z,92.97
2023-04-02T23:39:02.720Z,93.82
2023-04-02T23:41:33.210Z,93.77
2023-04-02T23:44:01.706Z,93.85
2023-04-02T23:46:31.224Z,93.92
2023-04-02T23:49:00.985Z,93.09
2023-04-02T23:51:31.459Z,93.00
2023-04-02T23:54:00.375Z,93.31
2023-04-02T23:56:29.214Z,93.21
2023-04-02T23:58:59.055Z,92.48
